Time;durP1;ratioP1;P1;durP2;ratioP2;P2;SDS_P1;SDS_P2;PMS_P1;PMS_P2;Temp;Humidity;BMP_temperature;BMP_pressure;BME280_temperature;BME280_humidity;BME280_pressure;Samples;Min_cycle;Max_cycle;Signal;HPM_P1;HPM_P2
2023/08/29 00:00:50;;;;;;;14.30;12.10;;;;;;;15.07;100.00;100430.41;6163012;23;20029;-77
2023/08/29 00:03:17;;;;;;;16.60;13.30;;;;;;;14.96;100.00;100414.28;6168094;23;20022;-83
2023/08/29 00:05:44;;;;;;;14.38;12.60;;;;;;;15.08;100.00;100439.13;6165471;23;20045;-82
2023/08/29 00:08:12;;;;;;;15.25;13.60;;;;;;;15.04;100.00;100432.59;6165668;23;20080;-80
2023/08/29 00:10:44;;;;;;;15.00;12.77;;;;;;;14.92;100.00;100427.03;6168026;23;20025;-79
2023/08/29 00:13:11;;;;;;;16.20;14.02;;;;;;;14.73;100.00;100396.84;6167583;23;20022;-81
2023/08/29 00:15:37;;;;;;;14.90;13.35;;;;;;;14.87;100.00;100432.03;6164047;23;20365;-80
2023/08/29 00:18:04;;;;;;;17.17;14.75;;;;;;;14.88;100.00;100434.50;6163030;23;20346;-80
2023/08/29 00:20:32;;;;;;;17.75;14.88;;;;;;;14.90;100.00;100445.66;6161975;23;20029;-81
2023/08/29 00:23:02;;;;;;;16.85;15.05;;;;;;;14.98;100.00;100436.00;6163704;23;20018;-81
2023/08/29 00:25:30;;;;;;;19.70;17.15;;;;;;;14.97;100.00;100434.38;6163714;23;20026;-78
2023/08/29 00:27:56;;;;;;;19.50;16.30;;;;;;;14.93;100.00;100434.75;6163585;23;20059;-82
2023/08/29 00:30:23;;;;;;;18.98;16.80;;;;;;;14.96;100.00;100433.56;6161189;23;20053;-80
2023/08/29 00:32:49;;;;;;;19.20;16.65;;;;;;;15.01;100.00;100440.88;6158848;23;20465;-80
2023/08/29 00:35:16;;;;;;;23.60;17.75;;;;;;;14.99;100.00;100445.53;6157517;23;20032;-79
2023/08/29 00:37:43;;;;;;;19.08;16.85;;;;;;;15.03;100.00;100438.88;6155714;23;20414;-78
2023/08/29 00:40:12;;;;;;;18.88;16.80;;;;;;;15.06;100.00;100454.31;6154519;23;20047;-79
2023/08/29 00:42:43;;;;;;;18.98;16.35;;;;;;;15.06;100.00;100456.94;6154537;23;20017;-81
2023/08/29 00:45:10;;;;;;;19.33;16.20;;;;;;;15.10;100.00;100461.66;6155152;23;20153;-79
2023/08/29 00:47:37;;;;;;;19.58;16.50;;;;;;;15.09;100.00;100460.03;6154291;23;20030;-79
2023/08/29 00:50:07;;;;;;;18.10;15.93;;;;;;;15.09;100.00;100454.75;6153910;23;20478;-79
2023/08/29 00:52:34;;;;;;;19.58;16.35;;;;;;;15.09;100.00;100459.22;6154328;23;20060;-79
2023/08/29 00:55:02;;;;;;;22.70;16.77;;;;;;;15.08;100.00;100454.94;6154407;23;20478;-79
2023/08/29 00:57:29;;;;;;;23.85;18.58;;;;;;;15.06;100.00;100456.94;6156061;23;20104;-80
2023/08/29 00:59:57;;;;;;;20.85;17.65;;;;;;;15.09;100.00;100464.47;6159816;23;20073;-82
2023/08/29 01:02:24;;;;;;;21.42;18.30;;;;;;;15.07;100.00;100466.50;6158981;23;20041;-83
2023/08/29 01:04:50;;;;;;;20.10;17.90;;;;;;;15.01;100.00;100456.69;6160700;23;20025;-81
2023/08/29 01:07:17;;;;;;;20.50;17.77;;;;;;;15.07;100.00;100458.59;6160301;23;20052;-81
2023/08/29 01:09:44;;;;;;;21.98;17.67;;;;;;;15.08;100.00;100457.56;6160697;23;20304;-81
2023/08/29 01:12:15;;;;;;;22.73;18.60;;;;;;;15.11;100.00;100458.03;6160861;23;20049;-80
2023/08/29 01:14:49;;;;;;;22.00;19.30;;;;;;;15.13;100.00;100463.06;6160911;23;20021;-82
2023/08/29 01:17:31;;;;;;;25.65;18.80;;;;;;;15.11;100.00;100467.75;6160798;23;20301;-80
2023/08/29 01:20:05;;;;;;;21.88;18.15;;;;;;;15.14;100.00;100462.06;6159065;23;20097;-80
2023/08/29 01:22:44;;;;;;;22.63;18.80;;;;;;;15.11;100.00;100465.09;6160723;23;20156;-81
2023/08/29 01:25:16;;;;;;;23.92;20.42;;;;;;;15.14;100.00;100476.06;6161259;23;20049;-81
2023/08/29 01:27:46;;;;;;;24.52;19.65;;;;;;;15.15;100.00;100477.69;6160367;23;20028;-81
2023/08/29 01:30:14;;;;;;;26.20;21.27;;;;;;;15.18;100.00;100479.94;6161155;23;20410;-80
2023/08/29 01:32:41;;;;;;;24.48;20.63;;;;;;;15.19;100.00;100486.03;6161140;23;20021;-81
2023/08/29 01:35:10;;;;;;;23.88;21.23;;;;;;;15.14;100.00;100488.41;6160977;23;20032;-79
2023/08/29 01:37:36;;;;;;;24.80;21.00;;;;;;;15.11;100.00;100489.66;6158857;23;20029;-78
2023/08/29 01:40:04;;;;;;;24.15;20.05;;;;;;;15.16;100.00;100496.97;6158400;23;20045;-77
2023/08/29 01:42:30;;;;;;;28.08;20.80;;;;;;;15.22;100.00;100507.56;6159114;23;20202;-79
2023/08/29 01:44:59;;;;;;;23.08;20.20;;;;;;;15.26;100.00;100506.19;6159877;23;20639;-84
2023/08/29 01:47:25;;;;;;;26.08;20.17;;;;;;;15.25;100.00;100509.00;6163784;23;20454;-83
2023/08/29 01:49:52;;;;;;;22.48;20.05;;;;;;;15.26;100.00;100513.28;6166599;23;20026;-83
2023/08/29 01:52:19;;;;;;;21.88;19.45;;;;;;;15.29;100.00;100510.25;6161022;23;20041;-80
2023/08/29 01:54:45;;;;;;;23.63;19.55;;;;;;;15.29;100.00;100515.53;6158853;23;20071;-81
2023/08/29 01:57:15;;;;;;;25.73;20.05;;;;;;;15.30;100.00;100514.53;6160485;23;20025;-82
2023/08/29 01:59:42;;;;;;;25.35;19.48;;;;;;;15.32;100.00;100514.34;6160840;23;20101;-80
2023/08/29 02:02:10;;;;;;;24.33;20.15;;;;;;;15.25;100.00;100516.91;6160647;23;20024;-82
2023/08/29 02:04:37;;;;;;;23.85;20.23;;;;;;;15.18;100.00;100521.31;6160745;23;20025;-82
2023/08/29 02:07:04;;;;;;;25.55;19.85;;;;;;;15.21;100.00;100531.47;6160319;23;20025;-80
2023/08/29 02:09:31;;;;;;;23.45;20.48;;;;;;;15.21;100.00;100536.75;6160852;23;20136;-81
2023/08/29 02:11:57;;;;;;;24.00;19.67;;;;;;;15.22;100.00;100528.66;6160009;23;20049;-81
2023/08/29 02:14:24;;;;;;;26.77;20.23;;;;;;;15.21;100.00;100523.56;6160591;23;20028;-81
2023/08/29 02:16:51;;;;;;;24.02;20.15;;;;;;;15.22;100.00;100523.38;6161355;23;20025;-80
2023/08/29 02:19:19;;;;;;;27.67;20.90;;;;;;;15.19;100.00;100522.94;6160298;23;20073;-80
2023/08/29 02:21:46;;;;;;;26.45;19.98;;;;;;;15.14;100.00;100527.94;6161369;23;20072;-81
2023/08/29 02:24:12;;;;;;;23.83;20.50;;;;;;;15.08;100.00;100534.00;6161134;23;20077;-82
2023/08/29 02:26:39;;;;;;;24.02;19.17;;;;;;;15.07;100.00;100529.75;6160842;23;20044;-81
2023/08/29 02:29:05;;;;;;;22.83;20.35;;;;;;;15.04;100.00;100533.56;6160759;23;20025;-82
2023/08/29 02:31:32;;;;;;;27.90;20.80;;;;;;;15.06;100.00;100533.38;6161062;23;20053;-81
2023/08/29 02:33:59;;;;;;;24.73;20.38;;;;;;;14.98;100.00;100533.47;6159886;23;20069;-81
2023/08/29 02:36:26;;;;;;;25.08;21.83;;;;;;;14.90;100.00;100527.31;6159664;23;20029;-79
2023/08/29 02:38:53;;;;;;;24.80;20.73;;;;;;;14.93;100.00;100529.59;6160470;23;20053;-80
2023/08/29 02:41:21;;;;;;;25.88;21.10;;;;;;;14.90;100.00;100529.16;6159194;23;20021;-81
2023/08/29 02:43:47;;;;;;;28.05;21.90;;;;;;;14.87;100.00;100530.34;6157562;23;20336;-78
2023/08/29 02:46:14;;;;;;;24.70;21.90;;;;;;;14.87;100.00;100529.50;6157256;23;20387;-79
2023/08/29 02:48:40;;;;;;;25.20;21.52;;;;;;;14.82;100.00;100519.53;6156498;23;20125;-80
2023/08/29 02:51:07;;;;;;;27.02;23.52;;;;;;;14.80;100.00;100520.72;6157211;23;20026;-79
2023/08/29 02:53:35;;;;;;;24.65;22.02;;;;;;;14.77;100.00;100514.00;6157122;23;20069;-79
2023/08/29 02:56:01;;;;;;;24.25;21.52;;;;;;;14.75;100.00;100509.94;6165494;23;20061;-78
2023/08/29 02:58:28;;;;;;;27.08;23.13;;;;;;;14.77;100.00;100508.75;6169572;23;20025;-80
2023/08/29 03:00:57;;;;;;;24.25;21.27;;;;;;;14.75;100.00;100497.56;6166129;23;20043;-82
2023/08/29 03:03:23;;;;;;;30.55;23.75;;;;;;;14.77;100.00;100489.47;6159158;23;20027;-81
2023/08/29 03:05:54;;;;;;;28.95;22.33;;;;;;;14.77;100.00;100485.03;6160889;23;20096;-79
2023/08/29 03:08:21;;;;;;;28.38;23.15;;;;;;;14.74;100.00;100477.50;6160702;23;20072;-79
2023/08/29 03:10:49;;;;;;;25.58;22.80;;;;;;;14.71;100.00;100469.97;6160647;23;20085;-80
2023/08/29 03:13:17;;;;;;;28.40;22.63;;;;;;;14.68;100.00;100467.72;6157775;23;20029;-79
2023/08/29 03:15:45;;;;;;;27.73;22.55;;;;;;;14.67;100.00;100471.34;6159873;23;20026;-81
2023/08/29 03:18:12;;;;;;;27.05;22.17;;;;;;;14.65;100.00;100462.03;6160125;23;20026;-81
2023/08/29 03:20:40;;;;;;;28.38;23.40;;;;;;;14.67;100.00;100457.34;6160259;23;20025;-80
2023/08/29 03:23:06;;;;;;;28.95;23.38;;;;;;;14.63;100.00;100464.84;6159955;23;20022;-79
2023/08/29 03:25:33;;;;;;;28.58;23.10;;;;;;;14.64;100.00;100455.94;6163316;23;20045;-79
2023/08/29 03:28:02;;;;;;;27.17;24.30;;;;;;;14.63;100.00;100454.31;6163637;23;20049;-79
2023/08/29 03:30:29;;;;;;;29.70;24.63;;;;;;;14.60;100.00;100441.53;6161649;23;20017;-79
2023/08/29 03:32:56;;;;;;;26.73;23.50;;;;;;;14.61;100.00;100443.16;6155650;23;20478;-81
2023/08/29 03:35:23;;;;;;;25.13;21.70;;;;;;;14.64;100.00;100452.50;6159252;23;20070;-81
2023/08/29 03:37:50;;;;;;;25.75;23.00;;;;;;;14.63;100.00;100440.31;6159398;23;20681;-80
2023/08/29 03:40:17;;;;;;;25.60;22.92;;;;;;;14.63;100.00;100438.50;6160551;23;20454;-79
2023/08/29 03:42:56;;;;;;;25.58;22.90;;;;;;;14.57;100.00;100424.28;6160936;23;20022;-80
2023/08/29 03:45:33;;;;;;;26.98;23.15;;;;;;;14.64;100.00;100439.31;6161973;23;20434;-80
2023/08/29 03:51:17;;;;;;;;;;;;;;;;;;;;;
2023/08/29 03:54:09;;;;;;;28.48;23.83;;;;;;;14.54;100.00;100437.00;6157701;23;20096;-80
2023/08/29 03:56:46;;;;;;;25.73;22.95;;;;;;;14.55;100.00;100438.63;6159067;23;20214;-80
2023/08/29 03:59:20;;;;;;;26.90;24.00;;;;;;;14.56;100.00;100440.25;6160880;23;20029;-82
2023/08/29 04:02:29;;;;;;;31.90;23.15;;;;;;;14.56;100.00;100446.34;6159211;23;20105;-79
2023/08/29 04:05:17;;;;;;;25.88;23.15;;;;;;;14.43;100.00;100430.38;6143948;23;20100;-81
2023/08/29 04:07:54;;;;;;;26.00;22.08;;;;;;;14.42;100.00;100430.56;6155654;23;20017;-79
2023/08/29 04:10:28;;;;;;;24.95;22.20;;;;;;;14.46;100.00;100445.00;6155588;23;20458;-78
2023/08/29 04:12:55;;;;;;;26.60;23.70;;;;;;;14.46;100.00;100450.25;6154707;23;20018;-79
2023/08/29 04:15:31;;;;;;;27.48;22.95;;;;;;;14.36;100.00;100439.19;6155547;23;20021;-78
2023/08/29 04:21:04;;;;;;;34.13;25.10;;;;;;;14.39;100.00;100462.50;6155699;23;20358;-78
2023/08/29 04:23:33;;;;;;;34.00;26.00;;;;;;;14.35;100.00;100461.25;6157697;23;20086;-80
2023/08/29 04:29:51;;;;;;;30.92;24.83;;;;;;;14.37;100.00;100467.94;6158219;23;20045;-79
2023/08/29 04:35:59;;;;;;;28.83;24.40;;;;;;;14.39;100.00;100475.66;6155450;23;20025;-79
2023/08/29 04:39:09;;;;;;;;;;;;;;;;;;;;;
2023/08/29 04:41:58;;;;;;;27.98;24.17;;;;;;;14.34;100.00;100470.94;6156799;23;20017;-81
2023/08/29 04:44:27;;;;;;;26.73;23.33;;;;;;;14.30;100.00;100469.69;6159928;23;20017;-78
2023/08/29 04:47:38;;;;;;;33.78;25.40;;;;;;;14.38;100.00;100471.41;6159262;23;20028;-80
2023/08/29 04:50:52;;;;;;;33.70;26.38;;;;;;;14.22;100.00;100440.84;6117379;23;20024;-78
2023/08/29 04:54:28;;;;;;;;;;;;;;;;;;;;;
2023/08/29 05:00:36;;;;;;;;;;;;;;;;;;;;;
2023/08/29 05:06:53;;;;;;;31.65;27.85;;;;;;;14.14;100.00;100438.31;6159505;23;20552;-78
2023/08/29 05:09:47;;;;;;;42.50;29.13;;;;;;;14.32;100.00;100466.88;6159897;23;20025;-80
2023/08/29 05:24:06;;;;;;;41.75;29.50;;;;;;;14.37;100.00;100461.88;6163710;23;20022;-83
2023/08/29 05:26:36;;;;;;;36.17;29.70;;;;;;;14.28;100.00;100440.09;6163784;23;20018;-84
2023/08/29 05:29:14;;;;;;;41.13;30.17;;;;;;;14.35;100.00;100441.00;6163647;23;20287;-85
2023/08/29 05:32:34;;;;;;;41.17;29.77;;;;;;;14.32;100.00;100435.28;6159147;23;20041;-84
2023/08/29 05:35:21;;;;;;;37.47;30.50;;;;;;;14.42;100.00;100451.63;6140049;23;20036;-86
2023/08/29 05:38:27;;;;;;;36.10;29.10;;;;;;;14.52;100.00;100470.59;6165212;23;20029;-86
2023/08/29 05:45:15;;;;;;;40.33;29.63;;;;;;;14.43;100.00;100461.16;6147950;23;20029;-86
2023/08/29 05:48:17;;;;;;;46.08;31.52;;;;;;;14.40;100.00;100435.19;6148992;23;20045;-85
2023/08/29 05:51:28;;;;;;;44.35;29.85;;;;;;;14.55;100.00;100463.13;6161536;23;20104;-85
2023/08/29 05:54:34;;;;;;;;;;;;;;;;;;;;;
2023/08/29 06:00:32;;;;;;;;;;;;;;;;;;;;;
2023/08/29 06:10:00;;;;;;;36.47;29.65;;;;;;;14.89;100.00;100474.81;6147131;23;20422;-84
2023/08/29 06:12:43;;;;;;;34.47;28.33;;;;;;;15.00;100.00;100476.97;6165040;23;20022;-84
2023/08/29 06:15:10;;;;;;;35.33;28.60;;;;;;;15.09;100.00;100464.47;6173894;23;20032;-85
2023/08/29 06:17:38;;;;;;;33.95;27.75;;;;;;;15.16;100.00;100478.50;6172604;23;20033;-84
2023/08/29 06:20:07;;;;;;;36.03;26.98;;;;;;;15.18;100.00;100458.88;6173057;23;20081;-85
2023/08/29 06:26:46;;;;;;;33.78;28.52;;;;;;;15.23;100.00;100461.75;6171677;23;20022;-84
2023/08/29 06:29:28;;;;;;;38.83;28.40;;;;;;;15.38;100.00;100480.13;6166937;23;20025;-84
2023/08/29 06:32:21;;;;;;;40.40;28.58;;;;;;;15.26;100.00;100455.28;6171401;23;20021;-85
2023/08/29 06:34:58;;;;;;;42.63;29.42;;;;;;;15.48;100.00;100491.16;6168395;23;20021;-85
2023/08/29 06:37:38;;;;;;;38.60;28.33;;;;;;;15.70;100.00;100483.22;6167943;23;20089;-85
2023/08/29 06:40:32;;;;;;;34.28;28.05;;;;;;;15.81;100.00;100472.13;6168872;23;20018;-85
2023/08/29 06:45:52;;;;;;;33.08;27.67;;;;;;;15.88;100.00;100449.25;6162524;23;20021;-84
2023/08/29 06:48:40;;;;;;;36.22;28.02;;;;;;;15.97;100.00;100448.06;6165290;23;20025;-85
2023/08/29 06:51:10;;;;;;;38.08;29.15;;;;;;;16.04;100.00;100464.75;6163186;23;20025;-84
2023/08/29 06:53:41;;;;;;;39.00;28.48;;;;;;;15.97;100.00;100461.28;6164008;23;20057;-86
2023/08/29 06:56:08;;;;;;;45.30;31.20;;;;;;;15.78;100.00;100439.03;6167391;23;20036;-85
2023/08/29 07:02:28;;;;;;;34.20;29.80;;;;;;;16.02;100.00;100474.69;6164222;23;20032;-85
2023/08/29 07:04:57;;;;;;;38.13;29.70;;;;;;;16.09;100.00;100462.31;6171850;23;20018;-85
2023/08/29 07:07:31;;;;;;;40.30;31.48;;;;;;;16.16;100.00;100447.34;6175882;23;20052;-86
2023/08/29 07:10:27;;;;;;;38.67;30.75;;;;;;;16.31;100.00;100470.16;6176994;23;20029;-85
2023/08/29 07:12:57;;;;;;;39.78;30.20;;;;;;;16.67;100.00;100478.63;6180311;23;20018;-85
2023/08/29 07:15:26;;;;;;;37.22;30.58;;;;;;;16.45;100.00;100456.00;6172733;23;20489;-85
2023/08/29 07:17:56;;;;;;;42.35;32.92;;;;;;;16.51;100.00;100455.19;6165583;23;20026;-86
2023/08/29 07:20:23;;;;;;;40.95;32.35;;;;;;;16.68;100.00;100482.91;6164103;23;20029;-85
2023/08/29 07:22:49;;;;;;;42.15;33.72;;;;;;;16.70;100.00;100464.19;6163198;23;20024;-85
2023/08/29 07:25:19;;;;;;;43.17;33.17;;;;;;;16.84;100.00;100460.56;6160470;23;20076;-83
2023/08/29 07:27:46;;;;;;;42.83;32.90;;;;;;;16.61;100.00;100434.47;6161821;23;20018;-86
2023/08/29 07:30:15;;;;;;;44.60;35.20;;;;;;;16.76;100.00;100471.34;6161074;23;20032;-85
2023/08/29 07:32:51;;;;;;;58.22;36.42;;;;;;;16.71;100.00;100471.94;6164633;23;20052;-86
2023/08/29 07:35:21;;;;;;;46.53;35.33;;;;;;;16.70;100.00;100478.22;6165625;23;20096;-85
2023/08/29 07:37:48;;;;;;;42.75;34.78;;;;;;;16.82;100.00;100495.13;6162932;23;20021;-84
2023/08/29 07:40:15;;;;;;;43.78;34.97;;;;;;;16.74;100.00;100482.09;6163535;23;20080;-86
2023/08/29 07:42:41;;;;;;;45.22;34.85;;;;;;;16.89;100.00;100480.09;6163046;23;20068;-86
2023/08/29 07:45:09;;;;;;;47.30;37.13;;;;;;;16.88;100.00;100467.91;6165575;23;20075;-86
2023/08/29 07:47:38;;;;;;;49.92;37.25;;;;;;;17.03;100.00;100474.81;6163858;23;20053;-86
2023/08/29 07:50:05;;;;;;;48.05;37.25;;;;;;;16.82;100.00;100468.72;6164630;23;20021;-85
2023/08/29 07:52:34;;;;;;;50.33;37.38;;;;;;;16.82;100.00;100452.84;6162441;23;20033;-85
2023/08/29 07:55:00;;;;;;;49.15;36.75;;;;;;;16.87;100.00;100468.09;6162238;23;20100;-86
2023/08/29 07:57:30;;;;;;;47.00;36.90;;;;;;;16.83;100.00;100485.38;6162051;23;20036;-86
2023/08/29 08:00:02;;;;;;;51.50;38.25;;;;;;;16.76;100.00;100501.22;6163402;23;20026;-86
2023/08/29 08:02:38;;;;;;;52.58;37.45;;;;;;;16.93;100.00;100485.81;6163062;23;20021;-85
2023/08/29 08:05:08;;;;;;;51.45;38.45;;;;;;;17.24;100.00;100486.03;6165900;23;20466;-85
2023/08/29 08:07:48;;;;;;;48.00;37.03;;;;;;;17.40;100.00;100471.59;6161632;23;20026;-86
2023/08/29 08:10:18;;;;;;;53.50;37.83;;;;;;;17.41;99.85;100475.88;6161369;23;20312;-85
2023/08/29 08:13:12;;;;;;;54.13;38.60;;;;;;;17.46;99.14;100475.25;6162507;23;20026;-86
2023/08/29 08:15:43;;;;;;;53.97;37.13;;;;;;;17.76;98.96;100470.34;6165167;23;20588;-84
2023/08/29 08:18:12;;;;;;;46.60;36.38;;;;;;;17.98;97.96;100474.34;6165292;23;20022;-84
2023/08/29 08:20:42;;;;;;;46.00;36.28;;;;;;;17.86;97.42;100453.03;6164878;23;20115;-84
2023/08/29 08:23:13;;;;;;;47.20;36.47;;;;;;;18.29;96.30;100470.19;6165202;23;20060;-84
2023/08/29 08:25:41;;;;;;;45.05;37.10;;;;;;;18.41;95.71;100460.56;6165317;23;20024;-84
2023/08/29 08:28:46;;;;;;;46.17;36.30;;;;;;;18.51;94.00;100458.25;6164312;23;20081;-83
2023/08/29 08:31:13;;;;;;;50.65;38.00;;;;;;;18.40;93.46;100425.31;6164450;23;20022;-83
2023/08/29 08:33:40;;;;;;;50.45;38.13;;;;;;;18.34;92.69;100430.66;6165617;23;20018;-82
2023/08/29 08:36:07;;;;;;;46.20;36.25;;;;;;;18.33;93.41;100453.66;6166087;23;20076;-83
2023/08/29 08:38:38;;;;;;;46.88;38.08;;;;;;;18.57;92.24;100452.09;6164441;23;20045;-83
2023/08/29 08:41:10;;;;;;;49.65;39.42;;;;;;;18.62;91.82;100454.97;6164332;23;20032;-83
2023/08/29 08:43:40;;;;;;;49.10;39.10;;;;;;;18.76;91.46;100464.47;6163334;23;20029;-82
2023/08/29 08:46:20;;;;;;;52.53;39.80;;;;;;;18.75;91.17;100438.19;6163209;23;20077;-84
2023/08/29 08:48:53;;;;;;;48.78;37.78;;;;;;;19.16;89.37;100435.00;6164754;23;20049;-83
2023/08/29 08:51:22;;;;;;;50.05;40.13;;;;;;;19.57;88.39;100452.22;6164920;23;20101;-85
2023/08/29 08:53:51;;;;;;;45.00;37.47;;;;;;;20.08;86.89;100454.53;6163401;23;20045;-86
2023/08/29 08:56:20;;;;;;;47.42;37.97;;;;;;;20.33;84.96;100436.63;6167980;23;20049;-86
2023/08/29 08:58:47;;;;;;;45.47;36.70;;;;;;;20.55;83.83;100434.31;6162097;23;20447;-84
2023/08/29 09:01:13;;;;;;;47.60;39.00;;;;;;;20.07;84.10;100431.66;6167058;23;20021;-85
2023/08/29 09:03:41;;;;;;;47.67;38.97;;;;;;;20.30;84.09;100437.09;6165666;23;20021;-85
2023/08/29 09:06:08;;;;;;;48.38;37.85;;;;;;;20.62;83.82;100427.06;6165254;23;20017;-84
2023/08/29 09:08:36;;;;;;;50.67;39.75;;;;;;;20.91;82.09;100419.25;6162667;23;20025;-82
2023/08/29 09:11:16;;;;;;;51.53;40.28;;;;;;;20.87;81.43;100438.34;6164500;23;20028;-83
2023/08/29 09:14:11;;;;;;;48.15;39.63;;;;;;;21.29;80.26;100402.88;6164840;23;20589;-83
2023/08/29 09:16:38;;;;;;;48.22;39.58;;;;;;;21.35;79.66;100415.28;6164893;23;20418;-84
2023/08/29 09:19:18;;;;;;;51.13;40.08;;;;;;;20.93;80.22;100447.25;6167489;23;20013;-84
2023/08/29 09:21:49;;;;;;;49.38;41.03;;;;;;;21.17;80.03;100421.50;6166588;23;20025;-84
2023/08/29 09:24:22;;;;;;;51.17;40.05;;;;;;;21.10;80.78;100436.75;6164428;23;20084;-84
2023/08/29 09:26:51;;;;;;;47.67;37.20;;;;;;;21.12;80.05;100440.00;6164768;23;20465;-84
2023/08/29 09:29:24;;;;;;;45.20;36.67;;;;;;;20.83;80.01;100415.91;6165526;23;20029;-85
2023/08/29 09:31:54;;;;;;;42.75;36.55;;;;;;;20.67;81.49;100427.22;6164760;23;20123;-83
2023/08/29 09:34:42;;;;;;;40.75;34.22;;;;;;;21.11;80.18;100409.94;6165740;23;20025;-84
2023/08/29 09:37:14;;;;;;;38.83;33.72;;;;;;;21.73;78.46;100414.81;6164046;23;20093;-84
2023/08/29 09:39:47;;;;;;;39.17;33.05;;;;;;;21.36;77.95;100425.69;6163518;23;20021;-86
2023/08/29 09:42:19;;;;;;;37.42;32.58;;;;;;;21.38;78.54;100412.16;6163260;23;20358;-84
2023/08/29 09:44:52;;;;;;;36.97;31.17;;;;;;;20.99;78.95;100425.06;6164623;23;20081;-85
2023/08/29 09:47:29;;;;;;;34.00;28.27;;;;;;;21.01;78.80;100416.84;6165475;23;20274;-84
2023/08/29 09:49:56;;;;;;;40.63;30.80;;;;;;;21.04;78.53;100427.84;6166046;23;20417;-85
2023/08/29 09:52:26;;;;;;;38.70;31.45;;;;;;;21.14;78.40;100416.66;6168460;23;20083;-85
2023/08/29 09:55:03;;;;;;;35.60;30.90;;;;;;;21.64;77.99;100419.66;6166833;23;20025;-85
2023/08/29 09:57:43;;;;;;;37.72;29.40;;;;;;;21.86;77.13;100419.84;6164637;23;20026;-84
2023/08/29 10:00:15;;;;;;;35.72;28.85;;;;;;;22.02;76.53;100418.34;6164527;23;20022;-85
2023/08/29 10:02:43;;;;;;;32.77;24.83;;;;;;;21.83;75.66;100399.00;6165063;23;20045;-86
2023/08/29 10:05:14;;;;;;;32.38;27.58;;;;;;;21.61;75.93;100406.00;6165206;23;20029;-85
2023/08/29 10:07:43;;;;;;;30.05;24.58;;;;;;;21.20;76.42;100378.47;6163287;23;20462;-85
2023/08/29 10:10:14;;;;;;;33.10;26.05;;;;;;;20.98;77.11;100375.56;6164801;23;20063;-86
2023/08/29 10:12:44;;;;;;;36.47;30.38;;;;;;;20.96;78.48;100406.09;6166598;23;20032;-84
2023/08/29 10:15:20;;;;;;;27.70;21.88;;;;;;;20.72;78.34;100384.78;6171091;23;20061;-86
2023/08/29 10:17:48;;;;;;;22.58;16.63;;;;;;;20.33;77.22;100366.72;6167252;23;20052;-85
2023/08/29 10:20:25;;;;;;;22.63;17.02;;;;;;;20.50;76.86;100365.09;6166623;23;20025;-85
2023/08/29 10:23:02;;;;;;;27.33;19.25;;;;;;;20.92;77.46;100391.63;6168092;23;20049;-85
2023/08/29 10:25:38;;;;;;;13.90;10.75;;;;;;;20.98;75.27;100383.53;6167499;23;20017;-84
2023/08/29 10:28:13;;;;;;;9.15;7.82;;;;;;;21.05;73.90;100364.81;6166650;23;20032;-86
2023/08/29 10:30:52;;;;;;;9.75;8.10;;;;;;;21.45;73.83;100386.22;6165891;23;20025;-84
2023/08/29 10:33:22;;;;;;;21.60;15.55;;;;;;;21.48;74.17;100373.25;6166995;23;20025;-85
2023/08/29 10:35:49;;;;;;;34.72;28.15;;;;;;;21.17;76.99;100386.91;6166728;23;20029;-85
2023/08/29 10:38:24;;;;;;;37.03;29.27;;;;;;;21.40;77.46;100386.13;6167569;23;20018;-83
2023/08/29 10:41:03;;;;;;;42.22;32.25;;;;;;;21.30;77.68;100394.69;6168576;23;20024;-83
2023/08/29 10:43:34;;;;;;;41.03;32.10;;;;;;;21.17;78.59;100390.38;6168945;23;20021;-84
2023/08/29 10:46:15;;;;;;;40.22;33.92;;;;;;;20.82;78.56;100398.31;6167665;23;20032;-85
2023/08/29 10:48:54;;;;;;;36.97;30.13;;;;;;;20.79;78.89;100385.50;6168716;23;20077;-85
2023/08/29 10:51:27;;;;;;;36.47;27.33;;;;;;;20.80;78.20;100395.06;6168609;23;20052;-86
2023/08/29 10:53:56;;;;;;;36.15;30.85;;;;;;;20.44;78.76;100381.94;6168397;23;20026;-84
2023/08/29 10:59:36;;;;;;;42.00;33.22;;;;;;;20.29;80.00;100397.47;6168350;23;20032;-84
2023/08/29 11:02:41;;;;;;;46.53;35.55;;;;;;;20.42;80.38;100391.97;6167765;23;20017;-84
2023/08/29 11:16:03;;;;;;;37.28;31.95;;;;;;;20.63;78.56;100361.41;5972294;23;20950;-83
2023/08/29 11:24:55;;;;;;;30.48;27.17;;;;;;;21.50;75.84;100344.56;6154510;23;20030;-83
2023/08/29 11:27:31;;;;;;;34.30;28.80;;;;;;;21.37;75.99;100347.47;6163125;23;20025;-84
2023/08/29 11:30:03;;;;;;;30.50;23.75;;;;;;;21.28;75.76;100329.41;6164873;23;20021;-84
2023/08/29 11:32:30;;;;;;;17.83;15.82;;;;;;;21.59;72.77;100304.25;6161461;23;20029;-83
2023/08/29 11:34:57;;;;;;;19.77;17.08;;;;;;;21.81;72.64;100334.50;6163755;23;20076;-79
2023/08/29 11:37:25;;;;;;;24.83;20.95;;;;;;;21.88;72.90;100348.50;6165743;23;20079;-82
2023/08/29 11:40:05;;;;;;;23.55;20.38;;;;;;;21.90;72.43;100343.75;6165012;23;20026;-83
2023/08/29 11:42:37;;;;;;;23.00;20.70;;;;;;;21.93;71.93;100345.13;6167279;23;20026;-84
2023/08/29 11:45:10;;;;;;;19.88;16.55;;;;;;;21.69;71.52;100310.59;6167526;23;20018;-82
2023/08/29 11:47:37;;;;;;;19.58;17.52;;;;;;;21.93;70.99;100335.28;6167214;23;20021;-83
2023/08/29 11:50:05;;;;;;;19.42;17.05;;;;;;;21.58;72.67;100313.28;6167843;23;20022;-84
2023/08/29 11:52:35;;;;;;;19.95;17.90;;;;;;;21.74;71.67;100336.53;6167768;23;20026;-84
2023/08/29 11:55:04;;;;;;;21.60;19.38;;;;;;;21.36;71.80;100340.53;6166241;23;20346;-84
2023/08/29 11:57:34;;;;;;;20.08;16.67;;;;;;;21.23;72.64;100319.50;6166665;23;20026;-83
2023/08/29 12:00:05;;;;;;;21.77;17.58;;;;;;;21.20;73.42;100318.09;6168909;23;20092;-83
2023/08/29 12:02:36;;;;;;;18.35;16.45;;;;;;;21.29;73.26;100333.69;6168809;23;20375;-83
2023/08/29 12:05:07;;;;;;;18.67;16.67;;;;;;;21.20;72.75;100323.41;6168264;23;20025;-83
2023/08/29 12:07:39;;;;;;;21.63;15.23;;;;;;;21.14;74.05;100339.50;6167080;23;20478;-83
2023/08/29 12:10:19;;;;;;;17.00;14.20;;;;;;;21.32;73.55;100350.00;6168569;23;20014;-83
2023/08/29 12:12:48;;;;;;;20.52;15.40;;;;;;;21.16;74.03;100330.22;6168929;23;20242;-83
2023/08/29 12:15:15;;;;;;;15.73;14.07;;;;;;;21.45;73.26;100333.00;6166619;23;20462;-83
2023/08/29 12:17:50;;;;;;;16.95;15.00;;;;;;;21.38;72.57;100326.97;6168802;23;20031;-84
2023/08/29 12:20:33;;;;;;;20.05;16.08;;;;;;;21.31;72.92;100327.09;6169545;23;20028;-83
2023/08/29 12:23:02;;;;;;;16.88;15.07;;;;;;;21.33;72.27;100311.72;6167527;23;20037;-83
2023/08/29 12:25:30;;;;;;;19.70;15.45;;;;;;;21.47;73.28;100342.38;6170977;23;20069;-82
2023/08/29 12:28:09;;;;;;;17.00;14.20;;;;;;;21.56;73.05;100329.50;6173277;23;20088;-82
2023/08/29 12:30:38;;;;;;;17.27;12.77;;;;;;;21.25;71.22;100293.47;6176397;23;20033;-82
2023/08/29 12:33:10;;;;;;;16.25;13.07;;;;;;;21.63;71.18;100324.03;6172719;23;20025;-81
2023/08/29 12:35:40;;;;;;;21.45;14.23;;;;;;;21.81;71.10;100294.56;6170572;23;20048;-83
2023/08/29 12:38:12;;;;;;;17.98;14.18;;;;;;;21.99;70.49;100310.34;6171638;23;20077;-82
2023/08/29 12:40:42;;;;;;;17.63;14.57;;;;;;;21.57;70.40;100298.38;6172051;23;20026;-83
2023/08/29 12:43:15;;;;;;;16.00;13.40;;;;;;;21.51;70.66;100265.50;6171673;23;20032;-82
2023/08/29 12:45:46;;;;;;;19.33;14.52;;;;;;;21.53;71.02;100276.72;6173016;23;20091;-83
2023/08/29 12:48:20;;;;;;;17.67;13.55;;;;;;;21.39;71.01;100310.78;6171673;23;20018;-84
2023/08/29 12:50:49;;;;;;;20.05;13.77;;;;;;;21.27;71.61;100317.97;6173918;23;20021;-82
2023/08/29 12:53:18;;;;;;;15.88;12.27;;;;;;;20.93;71.66;100297.50;6170976;23;20022;-86
2023/08/29 12:55:48;;;;;;;20.33;10.75;;;;;;;21.10;73.08;100314.38;6172433;23;20033;-83